Time;durP1;ratioP1;P1;durP2;ratioP2;P2;SDS_P1;SDS_P2;PMS_P1;PMS_P2;Temp;Humidity;BMP_temperature;BMP_pressure;BME280_temperature;BME280_humidity;BME280_pressure;Samples;Min_cycle;Max_cycle;Signal;HPM_P1;HPM_P2
2022/09/19 00:01:59;;;;;;;0.33;0.33;;;;;;;11.57;82.63;98960.47;5093753;28;20040;-67
2022/09/19 00:04:31;;;;;;;0.45;0.32;;;;;;;11.56;82.60;98952.00;5094662;28;20063;-66
2022/09/19 00:07:01;;;;;;;0.20;0.20;;;;;;;11.61;82.39;98951.91;5094987;28;20056;-67
2022/09/19 00:09:32;;;;;;;0.43;0.40;;;;;;;11.67;82.23;98947.53;5094886;28;20475;-66
2022/09/19 00:12:02;;;;;;;0.80;0.80;;;;;;;11.72;82.01;98950.88;5094946;28;20071;-66
2022/09/19 00:14:34;;;;;;;0.50;0.40;;;;;;;11.71;81.74;98941.53;5094789;28;20048;-67
2022/09/19 00:17:06;;;;;;;0.30;0.30;;;;;;;11.73;81.55;98942.38;5094497;28;20048;-66
2022/09/19 00:19:37;;;;;;;0.60;0.60;;;;;;;11.72;81.46;98945.78;5094767;28;20051;-66
2022/09/19 00:22:07;;;;;;;0.35;0.35;;;;;;;11.73;81.44;98944.91;5094577;28;20036;-65
2022/09/19 00:27:18;;;;;;;0.30;0.30;;;;;;;11.73;81.45;98942.38;5094145;28;20173;-67
2022/09/19 00:29:47;;;;;;;1.90;1.38;;;;;;;11.73;81.34;98939.81;5076174;28;20040;-67
2022/09/19 00:32:16;;;;;;;0.25;0.25;;;;;;;11.74;81.47;98943.19;5076455;28;20074;-66
2022/09/19 00:34:48;;;;;;;0.20;0.20;;;;;;;11.77;81.60;98943.13;5076099;28;20040;-67
2022/09/19 00:37:19;;;;;;;0.30;0.30;;;;;;;11.77;81.44;98938.88;5094150;28;20273;-67
2022/09/19 00:39:48;;;;;;;0.32;0.32;;;;;;;11.77;81.30;98932.91;5094108;28;20048;-67
2022/09/19 00:42:19;;;;;;;0.40;0.40;;;;;;;11.78;81.64;98935.44;5094327;28;20048;-67
2022/09/19 00:45:01;;;;;;;0.30;0.30;;;;;;;11.79;81.65;98932.00;5076213;28;20445;-67
2022/09/19 00:47:35;;;;;;;0.20;0.20;;;;;;;11.76;81.70;98932.06;5094072;28;20067;-66
2022/09/19 00:50:19;;;;;;;0.30;0.30;;;;;;;11.71;81.76;98927.91;5094038;28;20522;-67
2022/09/19 00:52:51;;;;;;;0.32;0.32;;;;;;;11.67;81.89;98927.09;5075871;28;20097;-67
2022/09/19 00:55:20;;;;;;;0.30;0.30;;;;;;;11.59;82.02;98923.81;5093862;28;20491;-67
2022/09/19 00:57:56;;;;;;;;;;;;;;;11.59;82.17;98921.25;5094189;28;20503;-65
2022/09/19 01:00:26;;;;;;;0.40;0.40;;;;;;;11.58;82.76;98918.72;5094143;28;19930;-66
2022/09/19 01:02:55;;;;;;;0.20;0.20;;;;;;;11.53;82.48;98923.06;5075671;28;20119;-66
2022/09/19 01:05:35;;;;;;;0.35;0.35;;;;;;;11.51;82.46;98920.56;5093692;28;20050;-67
2022/09/19 01:08:24;;;;;;;0.55;0.55;;;;;;;11.51;82.56;98919.69;5093719;28;20514;-67
2022/09/19 01:11:13;;;;;;;0.40;0.40;;;;;;;11.48;82.64;98915.50;5093709;28;20514;-67
2022/09/19 01:13:52;;;;;;;0.32;0.25;;;;;;;11.46;82.31;98917.22;5093504;28;20098;-66
2022/09/19 01:16:33;;;;;;;0.30;0.30;;;;;;;11.48;82.73;98918.03;5093570;28;20044;-67
2022/09/19 01:19:28;;;;;;;2.00;0.45;;;;;;;11.48;82.69;98915.50;5075967;28;20061;-66
2022/09/19 01:22:08;;;;;;;0.32;0.32;;;;;;;11.45;82.79;98910.41;5075813;28;20509;-66
2022/09/19 01:24:59;;;;;;;0.47;0.47;;;;;;;11.41;82.56;98908.78;5075553;28;20055;-67
2022/09/19 01:27:54;;;;;;;0.25;0.25;;;;;;;11.43;82.92;98912.16;5088526;28;20081;-66
2022/09/19 01:30:24;;;;;;;0.65;0.40;;;;;;;11.44;82.59;98913.88;5075512;28;20051;-66
2022/09/19 01:32:58;;;;;;;0.43;0.43;;;;;;;11.44;82.46;98916.41;5093987;28;20364;-66
2022/09/19 01:35:30;;;;;;;0.30;0.30;;;;;;;11.39;82.52;98913.94;5075710;28;20060;-66
2022/09/19 01:38:05;;;;;;;0.30;0.30;;;;;;;11.32;82.44;98911.50;5075436;28;20068;-66
2022/09/19 01:40:37;;;;;;;0.40;0.40;;;;;;;11.34;82.38;98917.44;5093380;28;20055;-65
2022/09/19 01:43:17;;;;;;;0.43;0.40;;;;;;;11.34;82.19;98913.16;5075532;28;20044;-66
2022/09/19 01:45:47;;;;;;;0.30;0.30;;;;;;;11.32;82.16;98919.16;5075377;28;20518;-66
2022/09/19 01:48:33;;;;;;;0.40;0.40;;;;;;;11.34;81.97;98915.72;5076089;28;20055;-66
2022/09/19 01:51:25;;;;;;;0.47;0.47;;;;;;;11.35;82.08;98908.88;5075273;28;20109;-65
2022/09/19 01:54:07;;;;;;;0.40;0.40;;;;;;;11.35;82.41;98914.84;5075253;28;20139;-65
2022/09/19 01:57:14;;;;;;;0.38;0.38;;;;;;;11.34;82.33;98922.53;5093115;28;20044;-65
2022/09/19 02:00:10;;;;;;;0.38;0.38;;;;;;;11.26;82.49;98919.25;5093185;28;20044;-66
2022/09/19 02:02:57;;;;;;;0.50;0.50;;;;;;;11.23;82.44;98924.41;5093393;28;20119;-66
2022/09/19 02:05:41;;;;;;;0.38;0.38;;;;;;;11.20;82.50;98919.38;5075675;28;20048;-66
2022/09/19 02:08:19;;;;;;;0.32;0.32;;;;;;;11.16;82.71;98921.09;5093500;28;20495;-65
2022/09/19 02:10:54;;;;;;;0.40;0.40;;;;;;;11.14;82.68;98924.53;5075108;28;20101;-65
2022/09/19 02:13:30;;;;;;;0.20;0.20;;;;;;;11.10;82.88;98921.22;5075301;28;20047;-65
2022/09/19 02:16:14;;;;;;;0.50;0.50;;;;;;;11.07;83.18;98920.41;5075095;28;20101;-66
2022/09/19 02:18:53;;;;;;;0.38;0.38;;;;;;;11.07;82.93;98917.84;5108726;28;20041;-66
2022/09/19 02:21:36;;;;;;;0.75;0.70;;;;;;;11.09;83.52;98923.78;5093090;28;20410;-66
2022/09/19 02:24:09;;;;;;;0.20;0.20;;;;;;;11.09;83.18;98913.56;5075910;28;20132;-66
2022/09/19 02:26:40;;;;;;;0.30;0.30;;;;;;;11.05;83.19;98915.31;5078894;28;20441;-65
2022/09/19 02:29:14;;;;;;;0.22;0.22;;;;;;;11.04;83.44;98917.88;5078349;28;20051;-66
2022/09/19 02:31:45;;;;;;;0.20;0.20;;;;;;;11.00;83.53;98913.69;5078833;28;20109;-66
2022/09/19 02:34:14;;;;;;;0.20;0.20;;;;;;;10.97;82.91;98911.19;5096515;28;20044;-66
2022/09/19 02:36:46;;;;;;;;;;;;;;;11.00;83.06;98913.69;5079073;28;20044;-66
2022/09/19 02:39:21;;;;;;;0.38;0.38;;;;;;;11.02;83.18;98911.97;5078526;28;19986;-66
2022/09/19 02:42:22;;;;;;;0.30;0.30;;;;;;;11.05;83.44;98912.78;5096324;28;20076;-67
2022/09/19 02:45:06;;;;;;;0.40;0.40;;;;;;;11.10;83.51;98907.59;5078586;28;20090;-66
2022/09/19 02:47:54;;;;;;;0.30;0.30;;;;;;;11.11;83.59;98916.94;5096255;28;20507;-66
2022/09/19 02:50:29;;;;;;;0.30;0.30;;;;;;;11.09;83.60;98911.00;5096448;28;20075;-66
2022/09/19 02:53:00;;;;;;;0.22;0.22;;;;;;;11.06;83.72;98911.06;5078152;28;20134;-66
2022/09/19 02:55:34;;;;;;;0.60;0.60;;;;;;;11.06;83.79;98913.63;5078364;28;20507;-66
2022/09/19 02:58:04;;;;;;;0.40;0.40;;;;;;;11.07;83.81;98915.28;5078056;28;20048;-66
2022/09/19 03:00:38;;;;;;;0.40;0.40;;;;;;;11.05;83.85;98915.31;5077922;28;20051;-66
2022/09/19 03:06:03;;;;;;;0.47;0.47;;;;;;;11.05;83.87;98909.38;5077156;28;20058;-66
2022/09/19 03:08:36;;;;;;;0.40;0.40;;;;;;;11.03;84.06;98911.97;5095816;28;20514;-66
2022/09/19 03:11:12;;;;;;;0.45;0.45;;;;;;;11.04;84.06;98917.88;5077977;28;20556;-66
2022/09/19 03:13:42;;;;;;;0.43;0.43;;;;;;;11.06;84.00;98926.38;5078091;28;20475;-66
2022/09/19 03:16:17;;;;;;;0.30;0.30;;;;;;;11.11;84.11;98924.63;5095698;28;20075;-66
2022/09/19 03:18:54;;;;;;;0.30;0.30;;;;;;;11.15;84.15;98931.34;5077697;28;20491;-66
2022/09/19 03:21:26;;;;;;;0.25;0.25;;;;;;;11.12;84.17;98932.25;5095826;28;20403;-66
2022/09/19 03:23:59;;;;;;;0.32;0.32;;;;;;;11.16;84.00;98933.03;5077744;28;20394;-66
2022/09/19 03:26:32;;;;;;;0.30;0.30;;;;;;;11.17;84.13;98934.72;5077508;28;20048;-66
2022/09/19 03:29:05;;;;;;;0.35;0.35;;;;;;;11.17;83.90;98939.84;5095386;28;20550;-66
2022/09/19 03:31:42;;;;;;;0.30;0.30;;;;;;;11.17;84.23;98940.69;5095275;28;20063;-66
2022/09/19 03:34:13;;;;;;;0.40;0.40;;;;;;;11.18;83.84;98944.09;5095329;28;20080;-66
2022/09/19 03:36:43;;;;;;;0.40;0.40;;;;;;;11.11;83.83;98935.66;5095565;28;20070;-66
2022/09/19 03:39:18;;;;;;;0.40;0.40;;;;;;;11.14;83.80;98950.09;5095195;28;20048;-66
2022/09/19 03:41:47;;;;;;;0.30;0.30;;;;;;;11.14;84.14;98950.94;5077400;28;20158;-66
2022/09/19 03:44:19;;;;;;;0.35;0.35;;;;;;;11.14;84.00;98960.31;5095393;28;20040;-66
2022/09/19 03:46:49;;;;;;;0.30;0.30;;;;;;;11.17;84.13;98955.16;5076978;28;20062;-66
2022/09/19 03:49:20;;;;;;;;;;;;;;;11.16;84.17;98958.56;5077369;28;20056;-66
2022/09/19 03:51:51;;;;;;;0.60;0.60;;;;;;;11.10;84.03;98961.22;5094884;28;19978;-66
2022/09/19 03:54:20;;;;;;;0.50;0.50;;;;;;;11.04;84.17;98968.94;5110976;28;20044;-67
2022/09/19 03:56:49;;;;;;;0.50;0.50;;;;;;;11.01;84.13;98974.13;5094906;28;20044;-66
2022/09/19 03:59:18;;;;;;;0.30;0.30;;;;;;;10.98;84.33;98979.25;5094820;28;20523;-67
2022/09/19 04:01:47;;;;;;;0.30;0.30;;;;;;;10.93;84.25;98975.94;5076628;28;20032;-66
2022/09/19 04:04:17;;;;;;;0.38;0.38;;;;;;;10.95;84.50;98969.09;5094766;28;20044;-66
2022/09/19 04:06:52;;;;;;;0.30;0.30;;;;;;;10.93;84.23;98960.59;5094694;28;20123;-66
2022/09/19 04:09:25;;;;;;;0.30;0.30;;;;;;;10.94;84.42;98972.53;5076590;28;20051;-66
2022/09/19 04:11:59;;;;;;;0.20;0.20;;;;;;;10.92;84.30;98971.72;5094595;28;20043;-66
2022/09/19 04:14:35;;;;;;;0.30;0.30;;;;;;;10.93;83.95;98966.56;5110375;28;20048;-66
2022/09/19 04:17:07;;;;;;;0.40;0.40;;;;;;;10.95;83.42;98963.97;5094604;28;20495;-66
2022/09/19 04:20:01;;;;;;;0.40;0.40;;;;;;;10.95;83.19;98972.50;5076687;28;20055;-66
2022/09/19 04:22:51;;;;;;;0.20;0.20;;;;;;;10.96;83.26;98975.91;5093942;28;20054;-66
2022/09/19 04:25:28;;;;;;;0.40;0.40;;;;;;;10.95;82.81;98972.50;5094408;28;20399;-66
2022/09/19 04:28:09;;;;;;;0.20;0.20;;;;;;;10.96;83.14;98978.44;5094087;28;20146;-66
2022/09/19 04:30:40;;;;;;;0.30;0.30;;;;;;;10.96;83.03;98975.91;5076535;28;20075;-66
2022/09/19 04:33:11;;;;;;;0.30;0.30;;;;;;;11.00;82.96;98977.53;5076166;28;20407;-66
2022/09/19 04:35:44;;;;;;;0.22;0.22;;;;;;;10.96;83.11;98975.91;5076088;28;20044;-66
2022/09/19 04:38:18;;;;;;;0.32;0.32;;;;;;;10.93;83.31;98981.03;5094078;28;20071;-66
2022/09/19 04:40:56;;;;;;;0.80;0.80;;;;;;;10.94;83.26;98987.84;5094150;28;20051;-66
2022/09/19 04:43:28;;;;;;;0.38;0.38;;;;;;;10.97;83.45;98998.00;5094203;28;20487;-66
2022/09/19 04:46:12;;;;;;;0.30;0.30;;;;;;;10.95;83.55;98998.03;5075869;28;20052;-66
2022/09/19 04:48:49;;;;;;;0.40;0.40;;;;;;;10.91;83.51;98993.84;5076186;28;20139;-66
2022/09/19 04:51:22;;;;;;;0.40;0.40;;;;;;;10.86;84.08;98995.59;5094195;28;20052;-66
2022/09/19 04:53:53;;;;;;;0.30;0.30;;;;;;;10.83;83.69;99010.09;5093793;28;20047;-66
2022/09/19 04:56:21;;;;;;;0.22;0.22;;;;;;;10.81;83.77;99007.56;5094105;28;20052;-66
2022/09/19 04:58:56;;;;;;;1.33;0.50;;;;;;;10.83;83.86;99015.19;5075792;28;20074;-65
2022/09/19 05:01:25;;;;;;;0.50;0.50;;;;;;;10.82;83.77;99016.94;5076048;28;20467;-65
2022/09/19 05:03:53;;;;;;;0.30;0.30;;;;;;;10.84;83.93;99016.91;5093538;28;20097;-65
2022/09/19 05:06:22;;;;;;;0.30;0.30;;;;;;;10.83;83.74;99012.63;5075667;28;20506;-65
2022/09/19 05:08:52;;;;;;;0.20;0.20;;;;;;;10.81;83.81;99019.47;5075707;28;20040;-66
2022/09/19 05:11:33;;;;;;;0.32;0.32;;;;;;;10.78;84.21;99017.81;5094174;28;20044;-65
2022/09/19 05:14:03;;;;;;;0.20;0.20;;;;;;;10.78;83.94;99028.88;5093558;28;20125;-65
2022/09/19 05:16:35;;;;;;;0.30;0.30;;;;;;;10.71;84.25;99024.69;5093552;28;20063;-65
2022/09/19 05:19:05;;;;;;;0.35;0.35;;;;;;;10.71;84.35;99032.34;5094197;28;20048;-65
2022/09/19 05:21:34;;;;;;;0.30;0.30;;;;;;;10.71;84.41;99042.56;5075872;28;20040;-65
2022/09/19 05:24:05;;;;;;;0.30;0.30;;;;;;;10.72;84.38;99040.88;5092842;28;20253;-66
2022/09/19 05:26:37;;;;;;;0.30;0.30;;;;;;;10.71;84.57;99034.91;5075672;28;20036;-66
2022/09/19 05:29:13;;;;;;;0.50;0.50;;;;;;;10.70;84.39;99043.41;5075154;28;20044;-66
2022/09/19 05:32:08;;;;;;;0.28;0.28;;;;;;;10.69;84.28;99044.28;5091468;28;20049;-66
2022/09/19 05:34:48;;;;;;;0.60;0.60;;;;;;;10.66;84.50;99053.69;5093596;28;20505;-66
2022/09/19 05:37:27;;;;;;;0.40;0.40;;;;;;;10.65;84.35;99057.94;5093683;28;20113;-66
2022/09/19 05:40:11;;;;;;;0.30;0.30;;;;;;;10.62;84.62;99060.53;5093661;28;20064;-66
2022/09/19 05:43:02;;;;;;;1.08;1.00;;;;;;;10.59;84.32;99068.22;5075300;28;20058;-66
2022/09/19 05:45:32;;;;;;;0.40;0.40;;;;;;;10.59;84.51;99068.22;5075231;28;20407;-66
2022/09/19 05:48:02;;;;;;;0.52;0.45;;;;;;;10.63;84.78;99069.88;5075265;28;20499;-66
2022/09/19 05:50:32;;;;;;;0.30;0.30;;;;;;;10.67;84.52;99071.53;5093260;28;20048;-66
2022/09/19 05:55:41;;;;;;;0.50;0.50;;;;;;;10.63;84.29;99080.06;5075294;28;20093;-66
2022/09/19 05:58:20;;;;;;;0.30;0.30;;;;;;;10.58;84.58;99078.47;5093197;28;20169;-66
2022/09/19 06:00:49;;;;;;;0.60;0.60;;;;;;;10.50;84.18;99081.09;5078818;28;20044;-66
2022/09/19 06:03:20;;;;;;;0.63;0.63;;;;;;;10.53;84.20;99083.56;5078994;28;20044;-66
2022/09/19 06:05:52;;;;;;;0.30;0.30;;;;;;;10.52;83.92;99081.06;5096883;28;20097;-66
2022/09/19 06:08:22;;;;;;;0.32;0.32;;;;;;;10.51;84.33;99085.31;5079059;28;20131;-65
2022/09/19 06:10:54;;;;;;;0.40;0.40;;;;;;;10.52;83.69;99089.56;5097159;28;20384;-65
2022/09/19 06:14:13;;;;;;;0.30;0.30;;;;;;;10.59;83.81;99091.19;5078769;28;20055;-65
2022/09/19 06:16:15;;;;;;;0.65;0.65;;;;;;;10.55;83.60;99089.53;5078609;28;20063;-65
2022/09/19 06:18:54;;;;;;;0.30;0.30;;;;;;;10.47;83.36;99083.66;5096722;28;20052;-65
2022/09/19 06:21:23;;;;;;;0.30;0.30;;;;;;;10.41;82.86;99078.63;5096947;28;20036;-65
2022/09/19 06:23:52;;;;;;;0.20;0.20;;;;;;;10.46;82.88;99081.13;5078485;28;20071;-66
2022/09/19 06:26:22;;;;;;;0.40;0.40;;;;;;;10.43;82.63;99087.09;5078131;28;20044;-65
2022/09/19 06:28:51;;;;;;;0.30;0.30;;;;;;;10.46;82.77;99092.16;5077963;28;20082;-65
2022/09/19 06:31:20;;;;;;;0.95;0.95;;;;;;;10.51;82.89;99092.13;5096538;28;20044;-65
2022/09/19 06:33:57;;;;;;;0.32;0.32;;;;;;;10.55;82.75;99102.28;5090644;28;20090;-66
2022/09/19 06:36:34;;;;;;;0.30;0.30;;;;;;;10.62;82.84;99097.97;5076195;28;20045;-65
2022/09/19 06:39:03;;;;;;;0.40;0.40;;;;;;;10.74;82.91;99103.78;5091824;28;20040;-65
2022/09/19 06:41:42;;;;;;;0.40;0.40;;;;;;;10.81;83.03;99101.16;5076300;28;20492;-65
2022/09/19 06:44:24;;;;;;;0.40;0.40;;;;;;;10.78;82.79;99104.59;5075989;28;20045;-65
2022/09/19 06:47:04;;;;;;;0.30;0.30;;;;;;;10.89;82.97;99107.03;5076177;28;20047;-65
2022/09/19 06:49:48;;;;;;;0.30;0.30;;;;;;;11.03;82.91;99100.06;5076275;28;20407;-65
2022/09/19 06:52:25;;;;;;;0.30;0.30;;;;;;;11.09;82.70;99098.25;5075892;28;20048;-65
2022/09/19 06:54:57;;;;;;;0.30;0.30;;;;;;;11.16;82.85;99101.59;5075793;28;20052;-65
2022/09/19 06:57:30;;;;;;;0.40;0.40;;;;;;;11.15;82.39;99105.03;5076395;28;20438;-65
2022/09/19 07:00:00;;;;;;;0.25;0.25;;;;;;;11.24;82.19;99104.91;5057932;28;20143;-65
2022/09/19 07:02:31;;;;;;;0.40;0.40;;;;;;;11.24;81.54;99115.13;5057924;28;20044;-65
2022/09/19 07:05:00;;;;;;;0.30;0.30;;;;;;;11.29;81.22;99118.47;5057958;28;20036;-65
2022/09/19 07:07:51;;;;;;;0.30;0.30;;;;;;;11.46;80.96;99121.66;5078579;28;20040;-65
2022/09/19 07:10:21;;;;;;;0.20;0.20;;;;;;;11.48;80.57;99127.56;5077048;28;20044;-65
2022/09/19 07:12:55;;;;;;;0.22;0.22;;;;;;;11.48;80.28;99126.72;5076991;28;20044;-66
2022/09/19 07:15:25;;;;;;;0.40;0.40;;;;;;;11.47;80.08;99138.66;5077449;28;20075;-65
2022/09/19 07:17:56;;;;;;;0.30;0.30;;;;;;;11.40;79.63;99134.47;5095706;28;20403;-65
2022/09/19 07:20:26;;;;;;;;;;;;;;;11.30;79.34;99140.59;5078069;28;20090;-65
2022/09/19 07:23:02;;;;;;;0.52;0.52;;;;;;;11.28;79.26;99148.25;5095493;28;19927;-65
2022/09/19 07:25:42;;;;;;;0.60;0.60;;;;;;;11.31;79.38;99143.13;5095221;28;20075;-66
2022/09/19 07:28:15;;;;;;;0.25;0.25;;;;;;;11.29;79.37;99149.13;5063933;28;20055;-65
2022/09/19 07:30:46;;;;;;;0.30;0.30;;;;;;;11.28;79.13;99142.28;5055495;28;20507;-65
2022/09/19 07:33:23;;;;;;;0.30;0.30;;;;;;;11.24;78.90;99150.88;5055471;28;20115;-65
2022/09/19 07:35:55;;;;;;;0.30;0.30;;;;;;;11.24;78.64;99150.88;5053889;28;20045;-66
2022/09/19 07:38:26;;;;;;;0.30;0.30;;;;;;;11.30;78.34;99154.19;5054200;28;20045;-65
2022/09/19 07:41:05;;;;;;;0.38;0.38;;;;;;;11.47;78.05;99164.19;5054957;28;20489;-65
2022/09/19 07:43:58;;;;;;;0.35;0.35;;;;;;;11.65;77.95;99163.97;5044854;28;20144;-65
2022/09/19 07:47:26;;;;;;;0.50;0.50;;;;;;;11.76;77.49;99166.41;5054586;28;20044;-65
2022/09/19 07:49:44;;;;;;;0.50;0.50;;;;;;;11.85;77.02;99163.75;5054577;28;20520;-65
2022/09/19 07:52:33;;;;;;;0.30;0.30;;;;;;;11.90;76.42;99169.63;5054440;28;20065;-65
2022/09/19 07:55:02;;;;;;;0.40;0.40;;;;;;;11.96;76.12;99174.66;5053796;28;20373;-65
2022/09/19 07:57:32;;;;;;;0.30;0.30;;;;;;;12.02;75.81;99165.16;5053466;28;20076;-65
2022/09/19 08:00:04;;;;;;;0.40;0.40;;;;;;;12.07;75.53;99168.50;5053509;28;20033;-65
2022/09/19 08:02:39;;;;;;;0.32;0.32;;;;;;;12.02;74.97;99159.22;5054472;28;20059;-65
2022/09/19 08:05:09;;;;;;;0.82;0.82;;;;;;;11.99;74.73;99165.25;5053150;28;20083;-65
2022/09/19 08:07:37;;;;;;;0.25;0.25;;;;;;;11.87;74.68;99170.53;5053146;28;20049;-65
2022/09/19 08:10:08;;;;;;;;;;;;;;;11.81;74.85;99170.59;5055166;28;20452;-65
2022/09/19 08:12:37;;;;;;;0.50;0.50;;;;;;;11.75;74.85;99170.69;5054375;28;20421;-65
2022/09/19 08:15:15;;;;;;;0.30;0.30;;;;;;;11.69;74.91;99175.88;5054356;28;20041;-65
2022/09/19 08:17:47;;;;;;;0.40;0.40;;;;;;;11.65;75.18;99179.31;5053376;28;20041;-65
2022/09/19 08:20:16;;;;;;;0.63;0.63;;;;;;;11.69;75.39;99181.00;5053020;28;20098;-65
2022/09/19 08:22:46;;;;;;;0.30;0.30;;;;;;;11.78;75.72;99180.84;5053848;28;20048;-66
2022/09/19 08:25:17;;;;;;;0.30;0.30;;;;;;;11.79;75.93;99190.22;5054140;28;20124;-65
2022/09/19 08:27:46;;;;;;;0.35;0.35;;;;;;;11.71;75.59;99189.47;5052652;28;20110;-65
2022/09/19 08:30:16;;;;;;;0.30;0.30;;;;;;;11.67;75.34;99190.34;5052929;28;20049;-65
2022/09/19 08:32:45;;;;;;;0.32;0.32;;;;;;;11.66;75.35;99190.38;5052898;28;20045;-65
2022/09/19 08:35:16;;;;;;;0.32;0.32;;;;;;;11.65;75.53;99199.75;5046002;28;20068;-65
2022/09/19 08:37:45;;;;;;;0.50;0.50;;;;;;;11.68;75.63;99193.81;5049076;28;20046;-65
2022/09/19 08:40:17;;;;;;;0.33;0.33;;;;;;;11.76;75.62;99200.50;5034284;28;20068;-65
2022/09/19 08:43:10;;;;;;;0.30;0.30;;;;;;;11.82;75.60;99202.13;5032751;28;20073;-65
2022/09/19 08:46:11;;;;;;;0.30;0.30;;;;;;;11.84;75.32;99201.25;5034202;28;20080;-65
2022/09/19 08:48:50;;;;;;;0.38;0.38;;;;;;;11.85;74.85;99197.81;5031120;28;20045;-65
2022/09/19 08:51:24;;;;;;;0.30;0.30;;;;;;;11.89;74.49;99202.03;5051423;28;20044;-65
2022/09/19 08:54:01;;;;;;;0.30;0.30;;;;;;;11.91;74.22;99207.97;5052003;28;20680;-65
2022/09/19 08:56:31;;;;;;;0.30;0.30;;;;;;;11.86;73.93;99209.72;5053803;28;20126;-65
2022/09/19 08:59:03;;;;;;;0.40;0.40;;;;;;;11.84;73.75;99211.47;5054190;28;20063;-67
2022/09/19 09:01:40;;;;;;;0.38;0.38;;;;;;;11.87;73.81;99206.31;5053548;28;20103;-65
2022/09/19 09:04:27;;;;;;;0.40;0.40;;;;;;;12.07;73.46;99224.78;5053498;28;20503;-65
2022/09/19 09:07:11;;;;;;;0.30;0.30;;;;;;;12.10;74.17;99223.88;5053495;28;20049;-65
2022/09/19 09:09:59;;;;;;;0.40;0.40;;;;;;;11.96;74.53;99224.09;5052395;28;20488;-65
2022/09/19 09:12:41;;;;;;;0.50;0.50;;;;;;;11.83;74.89;99225.09;5052409;28;20404;-65
2022/09/19 09:15:25;;;;;;;0.98;0.93;;;;;;;11.80;75.49;99230.28;5052497;28;20068;-65
2022/09/19 09:18:33;;;;;;;0.30;0.30;;;;;;;11.75;75.84;99232.06;5052315;28;20140;-66
2022/09/19 09:21:14;;;;;;;0.30;0.30;;;;;;;11.74;76.38;99230.34;5052242;28;20602;-65
2022/09/19 09:23:47;;;;;;;0.25;0.25;;;;;;;11.80;77.12;99220.06;5052113;28;20063;-65
2022/09/19 09:26:36;;;;;;;0.40;0.40;;;;;;;11.81;76.88;99226.00;5053493;28;20080;-65
2022/09/19 09:29:22;;;;;;;0.28;0.28;;;;;;;11.87;76.52;99229.34;5084009;28;20048;-66
2022/09/19 09:32:22;;;;;;;0.17;0.17;;;;;;;11.89;76.27;99224.19;5088764;28;20496;-66
2022/09/19 09:35:01;;;;;;;0.20;0.20;;;;;;;11.84;75.79;99237.03;5080675;28;20454;-65
2022/09/19 09:37:39;;;;;;;0.40;0.40;;;;;;;11.81;75.06;99231.97;5085209;28;20092;-65
2022/09/19 09:41:44;;;;;;;0.40;0.40;;;;;;;11.78;74.72;99237.09;5059579;28;20048;-65
2022/09/19 09:43:20;;;;;;;0.30;0.30;;;;;;;11.68;74.08;99225.31;5077428;28;20127;-67
2022/09/19 09:45:57;;;;;;;0.55;0.55;;;;;;;11.75;73.81;99233.75;5059631;28;20068;-65
2022/09/19 09:48:33;;;;;;;0.40;0.40;;;;;;;11.89;73.67;99234.41;5086654;28;20545;-65
2022/09/19 09:51:19;;;;;;;0.30;0.30;;;;;;;11.94;73.30;99233.50;5097286;28;20040;-65
2022/09/19 09:54:06;;;;;;;0.20;0.20;;;;;;;12.02;72.93;99231.66;5096667;28;20126;-65
2022/09/19 09:56:45;;;;;;;0.50;0.50;;;;;;;12.16;73.52;99238.31;5094206;28;20044;-65
2022/09/19 10:05:07;;;;;;;0.32;0.32;;;;;;;12.07;72.74;99235.00;5097051;28;20517;-65
2022/09/19 10:07:50;;;;;;;0.30;0.30;;;;;;;12.05;72.70;99230.78;5097315;28;20131;-65
2022/09/19 10:10:22;;;;;;;0.28;0.28;;;;;;;12.12;72.90;99231.56;5096962;28;20139;-65
2022/09/19 10:12:58;;;;;;;0.25;0.25;;;;;;;12.10;72.56;99229.84;5096715;28;20044;-65
2022/09/19 10:15:37;;;;;;;0.45;0.40;;;;;;;12.14;72.66;99240.06;5095718;28;20135;-65
2022/09/19 10:18:15;;;;;;;0.43;0.43;;;;;;;12.00;73.11;99212.94;5096774;28;20058;-65
2022/09/19 10:20:56;;;;;;;0.40;0.40;;;;;;;12.15;72.91;99234.06;5096796;28;20598;-65
2022/09/19 10:23:34;;;;;;;0.20;0.20;;;;;;;12.13;72.64;99238.34;5097000;28;20194;-65
2022/09/19 10:26:15;;;;;;;0.55;0.55;;;;;;;12.07;72.65;99245.25;5096676;28;20078;-65
2022/09/19 10:28:53;;;;;;;0.30;0.30;;;;;;;12.13;72.86;99239.19;5095066;28;20056;-64
2022/09/19 10:31:48;;;;;;;0.30;0.30;;;;;;;12.13;72.28;99248.59;5085412;28;20064;-64
2022/09/19 10:34:38;;;;;;;0.30;0.30;;;;;;;12.13;72.49;99251.13;5096054;28;20552;-65
2022/09/19 10:37:27;;;;;;;0.30;0.30;;;;;;;12.14;72.26;99240.88;5078514;28;20050;-65
2022/09/19 10:40:03;;;;;;;0.30;0.30;;;;;;;12.21;72.41;99251.88;5078315;28;20051;-64
2022/09/19 10:42:42;;;;;;;0.40;0.40;;;;;;;12.23;72.12;99256.13;5089707;28;20134;-65
2022/09/19 10:45:25;;;;;;;0.30;0.30;;;;;;;12.34;71.88;99254.25;5084470;28;20094;-64
2022/09/19 10:48:00;;;;;;;0.30;0.30;;;;;;;12.41;71.74;99253.28;5057996;28;20044;-67
2022/09/19 10:50:30;;;;;;;0.40;0.40;;;;;;;12.58;71.52;99264.09;5084262;28;20044;-65
2022/09/19 10:53:19;;;;;;;0.35;0.35;;;;;;;12.73;70.69;99263.03;5096107;28;20060;-64
2022/09/19 10:55:52;;;;;;;0.20;0.20;;;;;;;12.82;70.81;99262.03;5095248;28;20036;-65
2022/09/19 10:58:27;;;;;;;0.35;0.35;;;;;;;12.97;70.58;99256.66;5091150;28;20112;-65
2022/09/19 11:01:21;;;;;;;0.30;0.30;;;;;;;13.20;69.87;99265.66;5096017;28;20048;-65
2022/09/19 11:04:02;;;;;;;0.30;0.30;;;;;;;13.33;69.13;99262.00;5095494;28;20074;-67
2022/09/19 11:06:31;;;;;;;0.30;0.30;;;;;;;13.41;68.55;99249.88;5078125;28;20391;-65
2022/09/19 11:09:07;;;;;;;0.30;0.30;;;;;;;13.54;68.93;99259.88;5095440;28;20505;-66
2022/09/19 11:11:48;;;;;;;0.30;0.30;;;;;;;13.62;68.50;99258.03;5096043;28;20510;-67
2022/09/19 11:14:33;;;;;;;0.30;0.30;;;;;;;13.66;67.51;99251.94;5077777;28;20056;-65
2022/09/19 11:17:32;;;;;;;0.20;0.20;;;;;;;13.77;66.98;99237.22;5076749;28;20048;-65
2022/09/19 11:20:29;;;;;;;0.32;0.32;;;;;;;14.04;66.19;99241.72;5076482;28;20113;-65
2022/09/19 11:23:31;;;;;;;0.50;0.50;;;;;;;14.28;65.51;99235.22;5077415;28;20067;-65
2022/09/19 11:26:11;;;;;;;0.30;0.30;;;;;;;14.37;65.01;99230.75;5077795;28;20048;-65
2022/09/19 11:28:55;;;;;;;0.30;0.30;;;;;;;14.36;64.85;99234.19;5095119;28;20461;-67
2022/09/19 11:31:36;;;;;;;0.40;0.40;;;;;;;14.55;64.46;99235.47;5095233;28;20040;-66
2022/09/19 11:34:36;;;;;;;0.45;0.45;;;;;;;14.78;63.65;99228.03;5077042;28;20038;-65
2022/09/19 11:37:41;;;;;;;0.50;0.50;;;;;;;15.22;63.05;99234.59;5095469;28;20155;-65
2022/09/19 11:40:27;;;;;;;0.25;0.25;;;;;;;15.67;63.47;99226.53;5095305;28;20059;-65
2022/09/19 11:43:11;;;;;;;0.38;0.38;;;;;;;15.98;62.53;99225.59;5087750;28;20079;-65
2022/09/19 11:45:56;;;;;;;0.30;0.30;;;;;;;16.19;61.61;99226.69;5091417;28;20048;-66
2022/09/19 11:48:49;;;;;;;0.40;0.40;;;;;;;16.21;60.04;99234.34;5093882;28;20128;-66
2022/09/19 11:51:26;;;;;;;0.30;0.30;;;;;;;16.45;60.34;99223.28;5093824;28;20052;-68
2022/09/19 11:54:19;;;;;;;0.93;0.93;;;;;;;16.52;59.71;99225.66;5087325;28;20036;-65
2022/09/19 11:57:03;;;;;;;0.50;0.50;;;;;;;16.44;59.79;99226.75;5086090;28;20052;-65
2022/09/19 12:00:00;;;;;;;0.50;0.50;;;;;;;16.51;58.92;99215.34;5094900;28;20457;-65
2022/09/19 12:03:16;;;;;;;0.40;0.40;;;;;;;16.55;58.02;99224.72;5095178;28;20097;-65
2022/09/19 12:06:14;;;;;;;0.30;0.30;;;;;;;16.40;57.98;99226.00;5049950;28;20131;-65
2022/09/19 12:08:52;;;;;;;;;;;;;;;16.21;58.06;99229.22;5095114;28;20048;-65
2022/09/19 12:11:30;;;;;;;0.30;0.30;;;;;;;15.94;58.40;99236.88;5093481;28;20007;-65
2022/09/19 12:14:05;;;;;;;0.40;0.40;;;;;;;15.90;58.81;99226.72;5082184;28;20047;-64
2022/09/19 12:16:41;;;;;;;0.40;0.40;;;;;;;16.06;58.06;99228.78;5078508;28;20051;-65
2022/09/19 12:19:24;;;;;;;0.40;0.40;;;;;;;16.39;57.95;99234.63;5056519;28;20044;-65
2022/09/19 12:21:58;;;;;;;0.40;0.40;;;;;;;16.42;57.91;99244.00;5062636;28;20122;-65
2022/09/19 12:27:17;;;;;;;0.77;0.77;;;;;;;16.54;58.20;99238.47;5090098;28;20055;-65
2022/09/19 12:29:57;;;;;;;0.45;0.45;;;;;;;16.33;57.77;99228.81;5094547;28;20074;-65
2022/09/19 12:32:33;;;;;;;0.40;0.40;;;;;;;16.01;58.51;99228.06;5076319;28;20537;-65
2022/09/19 12:35:09;;;;;;;0.50;0.50;;;;;;;16.02;58.23;99232.34;5075535;28;20048;-65
2022/09/19 12:37:50;;;;;;;0.40;0.40;;;;;;;16.01;57.72;99232.38;5076410;28;20043;-65
2022/09/19 12:40:28;;;;;;;0.30;0.30;;;;;;;16.13;57.15;99226.00;5077566;28;20118;-65